Record high temperature 45.5°C Record low temperature -0.3°C Record high gust 85.1 km/h Record high average 77.7 km/h Record daily rain 139.6 mm Record low windchill -5.8°C Record high barometer 1043.6 hPa Record low barometer 978.0 hPa
Daily high pressure 1026.4 mb Daily low pressure 1021.2 mb Daily low windchill 13.8°C Daily high heat index 26.7°C Daily high gust speed 30.5 kmh NE Daily high average speed 14.8 kmh NE
MeteoMurcia.com
Ultima grabación a: 19:35 Data: 14 April 2024, time of next update: 19:40
Tiempo actualClear Temperatura actual25.2°C (77.4°F) (Indice de Calor25.2°C ), Temperatura aparente 23.2°C
Temperatura máxima (desde medianoche)26.9°C at: 17:25 Temperatura mínima (desde medianoche)13.8°C at: 07:26
Velocidad media del viento (diez minutos)13.0 kmh (7.0 kts) Dirección del viento (diez minutos)NNE (29°)
Temperatura aparente 25.2°C ráfagas maxima (última hora)26.3 kmh (14.2 kts) at: 18:47
ráfagas maxima (desde medianoche)30.5 kmh (16.5 kts) at: 16:17 Maximo media de un minuto (desde medianoche)14.8 kmh (8.0 kts) at: 14:07
Lluvia (última hora)0.0 mm Lluvia (desde medianoche)0.0 mm (0.00 in.)---
Lluvia Este mes 0.0 mm (0.00 in.) Lluvia Hasta la fecha este año46.2 mm (1.82 in.)
Lluvia máxima por minuto (última hora)0.0 mm/min Lluvia maxima por hora (últimas 6 horas)0.0 mm/hora
Lluvia de ayer 0.0 mm Punto de rocío 6.4°C (Wet Bulb :15.4°C )
Humedad 30 %, Humidex 25.0°C Barómetro corregido a msl1021.3 mb
cambio de presión+0.1 mb (última hora) Tendencia (últimas 1 hora)ESTACIONARIO
cambio de presión (últimas 12 horas)-3.4 mb cambio de presión (últimas 6 horas)-2.6 mb
Current Temp. Interna 26.4°C
Current Hum. Interna 33%


Última imagen cámara web


Weather report/warning/Metars

Murcia / Alcantarilla, Spain (LERI) 37-57N 001-14W 75M
Apr 14, 2024 - 01:00 PM EDT / 2024.04.14 1700 UTC
Wind: from the SE (140 degrees) at 10 MPH (9 KT) (direction variable):0
Visibility: greater than 7 mile(s):0
Temperature: 78 F (26 C)
Dew Point: 37 F (3 C)
Relative Humidity: 22%
Pressure (altimeter): 30.18 in. Hg (1022 hPa)
ob: LERI 141700Z 14009KT 110V170 CAVOK 26/03 Q1022 NOSIG
cycle: 17
Station name not available
Apr 14, 2024 - 01:00 PM EDT / 2024.04.14 1700 UTC
Wind: from the ESE (110 degrees) at 9 MPH (8 KT) (direction variable):0
Visibility: greater than 7 mile(s):0
Temperature: 75 F (24 C)
Dew Point: 42 F (6 C)
Relative Humidity: 31%
Pressure (altimeter): 30.21 in. Hg (1023 hPa)
ob: LEMI 141700Z 11008KT 070V150 CAVOK 24/06 Q1023
cycle: 17
Alicante / El Altet, Spain (LEAL) 38-17N 000-33W 31M
Apr 14, 2024 - 01:00 PM EDT / 2024.04.14 1700 UTC
Wind: from the E (090 degrees) at 6 MPH (5 KT) (direction variable):0
Visibility: greater than 7 mile(s):0
Temperature: 71 F (22 C)
Dew Point: 46 F (8 C)
Relative Humidity: 40%
Pressure (altimeter): 30.18 in. Hg (1022 hPa)
ob: LEAL 141700Z 09005KT 070V140 CAVOK 22/08 Q1022 NOSIG
cycle: 17



La informacion se graba a intervalos de 2 minutos, pero hay info grabada cada minuto. Optimizado para 800*600 y Color verdadero. Use el boton de

Use the RECARGA en su navegador para recojer la ulima info.

Clicar aquí para regarga diaria de medias/extremas del mes














Created by "Weather Display" software version 10.37S151 at this start time/date 11:33:26 03/04/2024

La estación de MeteoMurcia.com, publica sus datos en los siguientes proyectos:

Weather Underground PWS IMURCIAP2 Meteoclimatic www.awekas.at

Web Analytics

Clicky